Latest Weather Observations for Warwick

IDQ60801

Issued at 9:02 pm EST Wednesday 25 May 2016 (issued every 30 minutes, with the page automatically refreshed every 10 minutes)

About weather observations | Map of weather stations | Latest weather observations for QLD | Other Formats
Station Details ID: 041525 Name: WARWICK Lat: -28.21 Lon: 152.10 Height: 475.4 m
Data from the previous 72 hours. | See also: Recent months at Warwick
Date/Time
EST
Temp
°C
App
Temp
°C
Dew
Point
Rel
Hum
%
Delta-T
°C
Wind Press
QNH
hPa
Press
MSL
hPa
Rain
since 9 am
mm
Dir
 
Spd
km/h
Gust
km/h
Spd
kts
Gust
kts
25/09:00pm 8.2 5.9 -2.5 47 4.1 CALM 0 6 0 3 1017.4 1016.7 0.0
25/08:30pm 10.1 6.1 -5.2 33 5.6 ENE 7 9 4 5 1017.1 1016.5 0.0
25/08:00pm 11.1 6.7 -5.4 31 6.1 NE 9 11 5 6 1017.1 1016.5 0.0
25/07:30pm 12.1 8.2 -4.8 30 6.4 ENE 7 7 4 4 1017.1 1016.5 0.0
25/07:00pm 13.7 9.9 -5.1 26 7.2 N 6 7 3 4 1016.7 1016.1 0.0
25/06:30pm 13.5 9.7 -3.8 30 6.8 SSW 7 13 4 7 1016.6 1016.0 0.0
25/06:00pm 18.4 13.5 -7.3 17 9.9 NW 11 17 6 9 1016.1 1015.4 0.0
25/05:30pm 18.7 14.2 -7.1 16 10.0 NW 9 15 5 8 1015.9 1015.2 0.0
25/05:00pm 18.8 14.1 -9.7 13 10.5 NW 9 13 5 7 1015.7 1015.0 0.0
25/04:30pm 21.0 17.1 -4.2 18 10.6 WNW 7 11 4 6 1015.5 1014.8 0.0
25/04:00pm 24.1 20.1 -7.8 11 12.9 NW 6 11 3 6 1015.5 1014.8 0.0
25/03:30pm 24.9 20.7 -3.8 14 12.6 W 9 13 5 7 1015.4 1014.7 0.0
25/03:00pm 24.7 20.0 -9.0 10 13.4 W 9 17 5 9 1015.4 1014.7 0.0
25/02:30pm 24.3 19.6 -9.8 9 13.3 WNW 9 17 5 9 1015.5 1014.8 0.0
25/02:00pm 24.4 18.9 -10.1 9 13.4 W 13 22 7 12 1015.8 1015.1 0.0
25/01:30pm 24.3 19.7 -7.8 11 13.0 WNW 9 15 5 8 1016.1 1015.4 0.0
25/01:00pm 23.9 19.6 -5.1 14 12.3 WSW 9 15 5 8 1016.4 1015.7 0.0
25/12:30pm 23.2 19.7 -2.6 18 11.4 S 6 11 3 6 1016.9 1016.3 0.0
25/12:00pm 22.0 18.4 -3.7 17 11.0 SW 6 11 3 6 1017.5 1016.8 0.0
25/11:30am 20.6 17.5 -2.9 20 10.1 SSW 4 9 2 5 1017.9 1017.2 0.0
25/11:00am 18.1 15.2 -4.2 21 9.1 WNW 2 9 1 5 1018.4 1017.8 0.0
25/10:30am 16.1 13.8 -2.0 29 7.6 CALM 0 0 0 0 1018.8 1018.2 0.0
25/10:00am 13.0 10.9 -0.6 39 5.7 CALM 0 0 0 0 1019.1 1018.5 0.0
25/09:30am 10.3 8.2 -0.8 46 4.5 CALM 0 0 0 0 1019.5 1018.8 0.0
25/09:00am 7.4 5.2 -1.7 52 3.5 CALM 0 0 0 0 1019.6 1018.9 0.0
25/08:30am 4.4 2.0 -2.8 59 2.6 CALM 0 0 0 0 1019.7 1019.0 0.0
25/08:00am 2.9 0.6 -2.1 69 1.8 CALM 0 0 0 0 1019.8 1019.1 0.0
25/07:30am 1.2 - - - - CALM 0 0 0 0 1019.5 1018.8 0.0
25/07:00am -2.3 - - - - CALM 0 0 0 0 1019.2 1018.6 0.0
25/06:30am -1.9 - - - - CALM 0 0 0 0 1019.0 1018.4 0.0
25/06:00am -0.3 - - - - CALM 0 0 0 0 1019.0 1018.4 0.0
25/05:30am -1.0 - - - - CALM 0 0 0 0 1019.0 1018.4 0.0
25/05:00am -1.6 - - - - WSW 6 11 3 6 1018.7 1018.1 0.0
25/04:30am -2.2 - - - - CALM 0 0 0 0 1018.5 1017.9 0.0
25/04:00am -1.0 - - - - NE 4 7 2 4 1018.3 1017.6 0.0
25/03:30am 1.7 - - - - CALM 0 0 0 0 1018.3 1017.6 0.0
25/03:00am 2.4 -0.1 -3.7 64 2.1 CALM 0 0 0 0 1018.5 1017.9 0.0
25/02:30am 1.6 -0.6 -1.7 79 1.2 CALM 0 0 0 0 1018.5 1017.9 0.0
25/02:00am 1.7 -0.6 -2.2 75 1.4 CALM 0 0 0 0 1018.6 1018.0 0.0
25/01:30am 3.8 1.6 -1.9 66 2.1 CALM 0 0 0 0 1018.6 1018.0 0.0
25/01:00am 3.4 1.0 -3.4 61 2.4 CALM 0 0 0 0 1019.2 1018.6 0.0
25/12:30am 4.2 2.1 -1.1 68 2.0 CALM 0 0 0 0 1019.0 1018.4 0.0
25/12:00am 7.7 5.5 -1.2 53 3.5 CALM 0 0 0 0 1019.2 1018.6 0.0
 
Date/Time
EST
Temp
°C
App
Temp
°C
Dew
Point
Rel
Hum
%
Delta-T
°C
Wind Press
QNH
hPa
Press
MSL
hPa
Rain
since 9 am
mm
Dir
 
Spd
km/h
Gust
km/h
Spd
kts
Gust
kts
24/11:30pm 6.9 4.5 -3.4 48 3.8 CALM 0 6 0 3 1019.3 1018.7 0.0
24/11:00pm 8.2 5.9 -2.2 48 4.0 CALM 0 0 0 0 1019.6 1018.9 0.0
24/10:30pm 10.0 7.8 -1.2 45 4.5 CALM 0 0 0 0 1019.5 1018.8 0.0
24/10:00pm 10.0 7.7 -2.2 42 4.8 CALM 0 0 0 0 1019.3 1018.7 0.0
24/09:30pm 13.2 9.1 -3.2 32 6.5 WNW 9 15 5 8 1019.3 1018.7 0.0
24/09:00pm 11.8 8.8 -2.2 37 5.6 WNW 4 9 2 5 1019.2 1018.6 0.0
24/08:30pm 13.1 10.3 -3.3 32 6.5 NW 2 9 1 5 1019.0 1018.4 0.0
24/08:00pm 12.2 10.0 -1.9 37 5.7 CALM 0 6 0 3 1019.0 1018.4 0.0
24/07:30pm 14.6 12.0 -1.4 33 6.7 W 2 7 1 4 1018.8 1018.2 0.0
24/07:00pm 17.0 11.8 -5.8 20 8.9 WNW 13 17 7 9 1018.4 1017.8 0.0
24/06:30pm 17.0 11.5 -5.3 21 8.8 WNW 15 19 8 10 1018.1 1017.4 0.0
24/06:00pm 16.3 11.5 -5.9 21 8.6 W 11 17 6 9 1017.8 1017.1 0.0
24/05:30pm 16.3 11.7 -4.1 24 8.2 W 11 17 6 9 1017.5 1016.8 0.0
24/05:00pm 17.7 12.5 -6.0 19 9.3 WSW 13 19 7 10 1017.1 1016.5 0.0
24/04:30pm 20.7 15.6 -5.0 17 10.6 WSW 13 20 7 11 1016.8 1016.2 0.0
24/04:00pm 22.5 17.0 -5.8 14 11.7 WSW 15 24 8 13 1016.4 1015.7 0.0
24/03:30pm 23.4 17.9 -5.4 14 12.1 WSW 15 24 8 13 1016.2 1015.5 0.0
24/03:00pm 23.8 17.3 -7.6 12 12.7 WSW 19 28 10 15 1015.9 1015.2 0.0
24/02:30pm 24.6 20.2 -5.7 13 12.8 NW 9 15 5 8 1015.8 1015.1 0.0
24/02:00pm 23.8 18.9 -7.6 12 12.7 WNW 11 20 6 11 1016.0 1015.3 0.0
24/01:30pm 23.2 19.2 -2.5 18 11.4 WSW 9 15 5 8 1016.2 1015.5 0.0
24/01:00pm 23.0 18.8 -3.5 17 11.5 SW 9 17 5 9 1016.5 1015.8 0.0
24/12:30pm 23.2 20.4 -3.5 16 11.6 S 2 11 1 6 1016.6 1016.0 0.0
24/12:00pm 22.4 18.0 -5.6 15 11.6 SE 9 17 5 9 1017.1 1016.5 0.0
24/11:30am 22.0 18.2 -3.7 17 11.0 SE 7 13 4 7 1017.8 1017.1 0.0
24/11:00am 21.0 16.2 -2.9 20 10.3 SSE 13 19 7 10 1018.6 1018.0 0.0
24/10:30am 20.1 16.1 0.7 27 8.9 SE 11 20 6 11 1019.1 1018.5 0.0
24/10:00am 19.0 15.9 3.4 35 7.5 SSE 9 15 5 8 1019.5 1018.8 0.0
24/09:30am 15.6 14.6 8.7 63 3.6 S 4 9 2 5 1019.8 1019.1 0.0
24/09:00am 13.6 13.0 9.0 74 2.4 S 2 6 1 3 1019.8 1019.1 0.0
24/08:30am 12.3 12.0 8.8 79 1.8 CALM 0 0 0 0 1019.7 1019.0 0.0
24/08:00am 10.3 8.5 7.0 80 1.6 ENE 6 6 3 3 1019.3 1018.7 0.0
24/07:30am 7.7 5.6 5.8 88 0.9 NE 6 7 3 4 1019.2 1018.6 0.0
24/07:00am 6.0 5.0 5.8 99 0.1 CALM 0 0 0 0 1018.8 1018.2 0.0
24/06:30am 6.9 4.9 6.3 96 0.3 WSW 6 7 3 4 1018.5 1017.9 0.0
24/06:00am 6.0 4.9 5.1 94 0.4 CALM 0 0 0 0 1018.4 1017.8 0.0
24/05:30am 6.9 6.1 6.5 97 0.2 CALM 0 0 0 0 1018.0 1017.3 0.0
24/05:00am 8.1 7.2 6.0 87 1.0 CALM 0 6 0 3 1017.8 1017.1 0.0
24/04:30am 7.2 4.9 5.7 90 0.7 E 7 9 4 5 1017.8 1017.1 0.0
24/04:00am 8.9 8.4 7.9 93 0.5 CALM 0 0 0 0 1017.8 1017.1 0.0
24/03:30am 9.3 8.7 7.2 87 1.0 CALM 0 0 0 0 1017.9 1017.2 0.0
24/03:00am 9.7 9.2 7.7 87 1.0 CALM 0 0 0 0 1017.9 1017.2 0.0
24/02:30am 9.7 9.2 7.7 87 1.0 CALM 0 0 0 0 1017.9 1017.2 0.0
24/02:00am 9.2 8.7 7.8 91 0.7 CALM 0 0 0 0 1018.0 1017.3 0.0
24/01:30am 10.0 9.3 6.9 81 1.5 CALM 0 0 0 0 1018.0 1017.3 0.0
24/01:00am 11.0 9.0 7.1 77 1.9 NE 7 9 4 5 1018.0 1017.3 0.0
24/12:30am 11.9 11.3 7.5 74 2.2 CALM 0 0 0 0 1018.0 1017.3 0.0
24/12:00am 11.6 11.1 8.0 78 1.8 CALM 0 0 0 0 1018.2 1017.5 0.0
 
Date/Time
EST
Temp
°C
App
Temp
°C
Dew
Point
Rel
Hum
%
Delta-T
°C
Wind Press
QNH
hPa
Press
MSL
hPa
Rain
since 9 am
mm
Dir
 
Spd
km/h
Gust
km/h
Spd
kts
Gust
kts
23/11:30pm 11.6 11.2 8.4 81 1.6 CALM 0 0 0 0 1018.2 1017.5 0.0
23/11:00pm 12.7 12.1 7.3 69 2.7 CALM 0 0 0 0 1018.1 1017.4 0.0
23/10:30pm 13.2 12.9 8.7 74 2.3 CALM 0 0 0 0 1018.2 1017.5 0.0
23/10:00pm 13.0 12.5 7.8 70 2.6 CALM 0 0 0 0 1018.1 1017.4 0.0
23/09:30pm 14.0 13.6 8.1 67 3.0 CALM 0 0 0 0 1018.0 1017.3 0.0
23/09:00pm 14.3 14.3 9.8 74 2.4 CALM 0 0 0 0 1018.2 1017.5 0.0
23/08:30pm 14.7 14.4 8.5 66 3.2 CALM 0 0 0 0 1018.0 1017.3 0.0
23/08:00pm 15.9 15.8 9.3 65 3.5 CALM 0 0 0 0 1018.0 1017.3 0.0
23/07:30pm 17.3 17.2 9.4 59 4.2 CALM 0 0 0 0 1018.0 1017.3 0.0
23/07:00pm 17.6 17.0 7.5 51 5.2 CALM 0 0 0 0 1017.9 1017.2 0.0
23/06:30pm 18.8 17.3 8.6 51 5.4 WNW 6 7 3 4 1017.7 1017.0 0.0
23/06:00pm 18.9 17.7 9.7 55 5.0 W 6 7 3 4 1017.5 1016.8 0.0
23/05:30pm 18.6 17.1 8.4 51 5.4 WNW 6 7 3 4 1017.1 1016.5 0.0
23/05:00pm 20.3 19.2 10.1 52 5.6 W 6 9 3 5 1016.7 1016.1 0.0
23/04:30pm 23.5 21.9 10.3 43 7.4 WSW 9 15 5 8 1016.6 1016.0 0.0
23/04:00pm 24.8 21.6 10.1 39 8.3 SW 17 24 9 13 1016.5 1015.8 0.0
23/03:30pm 24.9 21.6 9.5 37 8.6 WSW 17 32 9 17 1016.2 1015.5 0.0
23/03:00pm 25.0 22.7 10.4 39 8.3 W 13 22 7 12 1016.3 1015.6 0.0
23/02:30pm 25.0 22.8 9.4 37 8.7 W 11 20 6 11 1016.1 1015.4 0.0
23/02:00pm 25.2 22.0 9.9 38 8.6 WSW 17 28 9 15 1016.5 1015.8 0.0
23/01:30pm 24.3 20.5 9.8 40 8.1 W 20 33 11 18 1017.3 1016.6 0.0
23/01:00pm 23.5 20.7 11.2 46 7.0 W 17 32 9 17 1017.5 1016.8 0.0
23/12:30pm 22.5 20.6 11.9 51 6.1 W 13 26 7 14 1018.0 1017.3 0.0
23/12:00pm 22.7 20.4 11.7 49 6.3 WNW 15 28 8 15 1018.8 1018.2 0.0
23/11:30am 21.5 18.8 11.7 53 5.6 WNW 17 20 9 11 1019.3 1018.7 0.0
23/11:00am 21.1 19.7 12.2 56 5.1 W 11 17 6 9 1020.0 1019.3 0.0
23/10:30am 20.4 19.0 12.2 59 4.7 WNW 11 20 6 11 1020.7 1020.1 0.0
23/10:00am 18.7 18.2 12.2 66 3.7 SSE 6 9 3 5 1021.1 1020.5 0.0
23/09:30am 17.0 17.5 11.6 70 3.0 CALM 0 0 0 0 1021.4 1020.8 0.0
23/09:00am 13.7 13.7 9.9 78 2.0 CALM 0 0 0 0 1021.9 1021.2 -
23/08:30am 10.5 10.3 8.9 90 0.8 CALM 0 0 0 0 1022.0 1021.3 -
23/08:00am 8.0 7.4 7.4 96 0.3 CALM 0 0 0 0 1022.0 1021.3 -
23/07:30am 6.0 4.9 5.3 95 0.3 CALM 0 0 0 0 1022.1 1021.5 -
23/07:00am 5.1 3.9 4.4 95 0.3 CALM 0 0 0 0 1022.0 1021.3 -
23/06:30am 7.4 6.7 6.8 96 0.3 CALM 0 7 0 4 1021.7 1021.0 -
23/06:00am 6.6 5.5 5.3 91 0.6 CALM 0 0 0 0 1021.7 1021.0 -
23/05:30am 5.9 4.4 5.2 95 0.3 NE 2 7 1 4 1021.7 1021.0 -
23/05:00am 7.4 5.3 6.5 94 0.4 ENE 7 9 4 5 1021.3 1020.7 -
23/04:30am 6.2 3.9 4.6 89 0.7 NE 6 9 3 5 1021.3 1020.7 -
23/04:00am 6.7 5.7 5.6 93 0.5 CALM 0 0 0 0 1021.4 1020.8 -
23/03:30am 7.0 5.2 7.0 100 0.0 SW 6 9 3 5 1021.4 1020.8 -
23/03:00am 7.4 6.8 7.4 100 0.0 CALM 0 0 0 0 1021.2 1020.6 0.0
23/02:30am 7.8 7.2 7.2 96 0.3 CALM 0 0 0 0 1021.3 1020.7 -
23/02:00am 9.1 8.8 8.5 96 0.3 CALM 0 0 0 0 1021.5 1020.9 -
23/01:30am 8.1 7.5 7.3 95 0.4 CALM 0 0 0 0 1021.7 1021.0 -
23/01:00am 8.7 8.3 8.1 96 0.3 CALM 0 0 0 0 1021.9 1021.2 -
23/12:30am 9.0 7.8 8.0 93 0.5 W 4 7 2 4 1022.1 1021.5 -
23/12:00am 9.9 9.6 8.7 92 0.6 CALM 0 0 0 0 1022.1 1021.5 -
 
Date/Time
EST
Temp
°C
App
Temp
°C
Dew
Point
Rel
Hum
%
Delta-T
°C
Wind Press
QNH
hPa
Press
MSL
hPa
Rain
since 9 am
mm
Dir
 
Spd
km/h
Gust
km/h
Spd
kts
Gust
kts
22/11:30pm 11.5 11.4 9.6 88 1.0 CALM 0 0 0 0 1022.3 1021.7 -
22/11:00pm 12.2 12.4 10.5 89 0.9 CALM 0 0 0 0 1022.6 1022.0 -
22/10:30pm 12.0 12.0 9.9 87 1.1 CALM 0 0 0 0 1022.7 1022.1 -
22/10:00pm 10.8 10.1 8.4 85 1.2 W 2 9 1 5 1022.7 1022.1 -
22/09:30pm 11.6 11.3 8.8 83 1.4 CALM 0 0 0 0 1022.8 1022.2 -

Other Formats:

Comma delimited format used in spreadsheet applications
http://www.bom.gov.au/fwo/IDQ60801/IDQ60801.94555.axf

JavaScript Object Notation format (JSON) in row-major order
http://www.bom.gov.au/fwo/IDQ60801/IDQ60801.94555.json